sensor_id;sensor_type;location;lat;lon;timestamp;P1;durP1;ratioP1;P2;durP2;ratioP2
72584;SDS011;60618;40.084;32.908;2023-08-24T00:00:16;11.75;;;4.55;;
72584;SDS011;60618;40.084;32.908;2023-08-24T00:02:43;8.67;;;4.60;;
72584;SDS011;60618;40.084;32.908;2023-08-24T00:05:10;9.48;;;4.50;;
72584;SDS011;60618;40.084;32.908;2023-08-24T00:07:37;10.45;;;4.50;;
72584;SDS011;60618;40.084;32.908;2023-08-24T00:10:04;9.07;;;4.18;;
72584;SDS011;60618;40.084;32.908;2023-08-24T00:12:32;5.93;;;4.07;;
72584;SDS011;60618;40.084;32.908;2023-08-24T00:15:00;9.83;;;4.80;;
72584;SDS011;60618;40.084;32.908;2023-08-24T00:17:27;9.25;;;4.30;;
72584;SDS011;60618;40.084;32.908;2023-08-24T00:19:53;9.35;;;4.50;;
72584;SDS011;60618;40.084;32.908;2023-08-24T00:22:20;6.38;;;4.10;;
72584;SDS011;60618;40.084;32.908;2023-08-24T00:24:47;7.60;;;4.47;;
72584;SDS011;60618;40.084;32.908;2023-08-24T00:27:14;8.13;;;4.50;;
72584;SDS011;60618;40.084;32.908;2023-08-24T00:29:41;7.43;;;4.20;;
72584;SDS011;60618;40.084;32.908;2023-08-24T00:32:08;9.98;;;4.90;;
72584;SDS011;60618;40.084;32.908;2023-08-24T00:34:35;9.90;;;4.50;;
72584;SDS011;60618;40.084;32.908;2023-08-24T00:37:02;8.65;;;4.20;;
72584;SDS011;60618;40.084;32.908;2023-08-24T00:39:28;9.90;;;4.33;;
72584;SDS011;60618;40.084;32.908;2023-08-24T00:41:55;8.20;;;4.30;;
72584;SDS011;60618;40.084;32.908;2023-08-24T00:44:22;9.15;;;4.70;;
72584;SDS011;60618;40.084;32.908;2023-08-24T00:46:49;9.73;;;4.57;;
72584;SDS011;60618;40.084;32.908;2023-08-24T00:49:16;7.32;;;4.43;;
72584;SDS011;60618;40.084;32.908;2023-08-24T00:51:43;10.63;;;4.50;;
72584;SDS011;60618;40.084;32.908;2023-08-24T00:54:10;7.93;;;4.57;;
72584;SDS011;60618;40.084;32.908;2023-08-24T00:56:37;8.50;;;4.40;;
72584;SDS011;60618;40.084;32.908;2023-08-24T00:59:07;9.07;;;4.47;;
72584;SDS011;60618;40.084;32.908;2023-08-24T01:01:33;9.18;;;4.53;;
72584;SDS011;60618;40.084;32.908;2023-08-24T01:04:01;8.13;;;4.57;;
72584;SDS011;60618;40.084;32.908;2023-08-24T01:06:28;9.07;;;4.60;;
72584;SDS011;60618;40.084;32.908;2023-08-24T01:08:55;9.80;;;4.50;;
72584;SDS011;60618;40.084;32.908;2023-08-24T01:13:56;10.20;;;4.60;;
72584;SDS011;60618;40.084;32.908;2023-08-24T01:16:36;7.57;;;4.60;;
72584;SDS011;60618;40.084;32.908;2023-08-24T01:19:08;8.20;;;4.60;;
72584;SDS011;60618;40.084;32.908;2023-08-24T01:21:57;10.10;;;4.60;;
72584;SDS011;60618;40.084;32.908;2023-08-24T01:24:35;6.60;;;4.50;;
72584;SDS011;60618;40.084;32.908;2023-08-24T01:27:06;7.70;;;4.38;;
72584;SDS011;60618;40.084;32.908;2023-08-24T01:29:34;7.70;;;4.37;;
72584;SDS011;60618;40.084;32.908;2023-08-24T01:32:02;11.85;;;4.30;;
72584;SDS011;60618;40.084;32.908;2023-08-24T01:34:29;9.23;;;4.45;;
72584;SDS011;60618;40.084;32.908;2023-08-24T01:36:56;9.68;;;4.20;;
72584;SDS011;60618;40.084;32.908;2023-08-24T01:39:29;7.25;;;4.53;;
72584;SDS011;60618;40.084;32.908;2023-08-24T01:42:07;9.20;;;4.63;;
72584;SDS011;60618;40.084;32.908;2023-08-24T01:44:41;12.18;;;4.63;;
72584;SDS011;60618;40.084;32.908;2023-08-24T01:47:11;10.57;;;4.50;;
72584;SDS011;60618;40.084;32.908;2023-08-24T01:49:39;8.43;;;4.40;;
72584;SDS011;60618;40.084;32.908;2023-08-24T01:52:07;10.05;;;4.65;;
72584;SDS011;60618;40.084;32.908;2023-08-24T01:54:35;7.67;;;4.57;;
72584;SDS011;60618;40.084;32.908;2023-08-24T01:57:05;9.20;;;4.43;;
72584;SDS011;60618;40.084;32.908;2023-08-24T01:59:33;6.07;;;4.38;;
72584;SDS011;60618;40.084;32.908;2023-08-24T02:02:00;12.95;;;4.70;;
72584;SDS011;60618;40.084;32.908;2023-08-24T02:04:27;10.13;;;5.10;;
72584;SDS011;60618;40.084;32.908;2023-08-24T02:06:54;9.23;;;4.90;;
72584;SDS011;60618;40.084;32.908;2023-08-24T02:09:21;7.47;;;4.43;;
72584;SDS011;60618;40.084;32.908;2023-08-24T02:11:47;11.15;;;4.60;;
72584;SDS011;60618;40.084;32.908;2023-08-24T02:14:14;8.43;;;4.53;;
72584;SDS011;60618;40.084;32.908;2023-08-24T02:16:41;10.18;;;4.65;;
72584;SDS011;60618;40.084;32.908;2023-08-24T02:19:08;8.90;;;4.57;;
72584;SDS011;60618;40.084;32.908;2023-08-24T02:21:35;7.15;;;4.55;;
72584;SDS011;60618;40.084;32.908;2023-08-24T02:24:04;9.77;;;4.75;;
72584;SDS011;60618;40.084;32.908;2023-08-24T02:26:31;8.55;;;4.80;;
72584;SDS011;60618;40.084;32.908;2023-08-24T02:28:57;8.82;;;4.57;;
72584;SDS011;60618;40.084;32.908;2023-08-24T02:31:25;8.07;;;4.47;;
72584;SDS011;60618;40.084;32.908;2023-08-24T02:33:52;10.10;;;4.90;;
72584;SDS011;60618;40.084;32.908;2023-08-24T02:36:19;8.93;;;4.80;;
72584;SDS011;60618;40.084;32.908;2023-08-24T02:38:46;7.13;;;4.57;;
72584;SDS011;60618;40.084;32.908;2023-08-24T02:41:13;8.82;;;4.72;;
72584;SDS011;60618;40.084;32.908;2023-08-24T02:43:40;12.50;;;4.70;;
72584;SDS011;60618;40.084;32.908;2023-08-24T02:46:09;9.18;;;4.68;;
72584;SDS011;60618;40.084;32.908;2023-08-24T02:48:36;8.07;;;4.35;;
72584;SDS011;60618;40.084;32.908;2023-08-24T02:51:03;8.13;;;4.40;;
72584;SDS011;60618;40.084;32.908;2023-08-24T02:53:31;7.25;;;4.43;;
72584;SDS011;60618;40.084;32.908;2023-08-24T02:55:59;9.27;;;4.60;;
72584;SDS011;60618;40.084;32.908;2023-08-24T02:58:26;8.30;;;4.60;;
72584;SDS011;60618;40.084;32.908;2023-08-24T03:00:53;12.02;;;4.88;;
72584;SDS011;60618;40.084;32.908;2023-08-24T03:03:20;8.68;;;4.82;;
72584;SDS011;60618;40.084;32.908;2023-08-24T03:05:54;10.75;;;4.50;;
72584;SDS011;60618;40.084;32.908;2023-08-24T03:08:21;9.23;;;4.33;;
72584;SDS011;60618;40.084;32.908;2023-08-24T03:10:49;10.85;;;4.55;;
72584;SDS011;60618;40.084;32.908;2023-08-24T03:13:16;9.15;;;4.43;;
72584;SDS011;60618;40.084;32.908;2023-08-24T03:15:43;7.85;;;4.35;;
72584;SDS011;60618;40.084;32.908;2023-08-24T03:18:13;9.77;;;4.88;;
72584;SDS011;60618;40.084;32.908;2023-08-24T03:20:42;9.60;;;4.60;;
72584;SDS011;60618;40.084;32.908;2023-08-24T03:23:10;8.60;;;4.43;;
72584;SDS011;60618;40.084;32.908;2023-08-24T03:25:38;10.52;;;4.60;;
72584;SDS011;60618;40.084;32.908;2023-08-24T03:28:06;9.68;;;4.50;;
72584;SDS011;60618;40.084;32.908;2023-08-24T03:30:38;9.55;;;5.00;;
72584;SDS011;60618;40.084;32.908;2023-08-24T03:33:06;9.97;;;5.00;;
72584;SDS011;60618;40.084;32.908;2023-08-24T03:35:33;10.80;;;4.60;;
72584;SDS011;60618;40.084;32.908;2023-08-24T03:38:00;9.27;;;4.70;;
72584;SDS011;60618;40.084;32.908;2023-08-24T03:40:27;9.55;;;4.97;;
72584;SDS011;60618;40.084;32.908;2023-08-24T03:42:54;10.35;;;4.80;;
72584;SDS011;60618;40.084;32.908;2023-08-24T03:45:21;7.73;;;4.83;;
72584;SDS011;60618;40.084;32.908;2023-08-24T03:47:48;9.10;;;4.60;;
72584;SDS011;60618;40.084;32.908;2023-08-24T03:50:16;9.77;;;4.70;;
72584;SDS011;60618;40.084;32.908;2023-08-24T03:52:43;9.02;;;4.70;;
72584;SDS011;60618;40.084;32.908;2023-08-24T03:55:10;8.85;;;4.80;;
72584;SDS011;60618;40.084;32.908;2023-08-24T03:57:37;7.73;;;4.70;;
72584;SDS011;60618;40.084;32.908;2023-08-24T04:00:05;9.05;;;4.57;;
72584;SDS011;60618;40.084;32.908;2023-08-24T04:02:33;8.73;;;4.60;;
72584;SDS011;60618;40.084;32.908;2023-08-24T04:05:00;7.18;;;4.50;;
72584;SDS011;60618;40.084;32.908;2023-08-24T04:07:26;10.10;;;4.75;;
72584;SDS011;60618;40.084;32.908;2023-08-24T04:09:53;7.73;;;4.60;;
72584;SDS011;60618;40.084;32.908;2023-08-24T04:12:20;8.68;;;5.00;;
72584;SDS011;60618;40.084;32.908;2023-08-24T04:14:47;9.70;;;4.53;;
72584;SDS011;60618;40.084;32.908;2023-08-24T04:17:14;8.45;;;4.60;;
72584;SDS011;60618;40.084;32.908;2023-08-24T04:19:41;7.85;;;4.70;;
72584;SDS011;60618;40.084;32.908;2023-08-24T04:22:08;8.30;;;4.47;;
72584;SDS011;60618;40.084;32.908;2023-08-24T04:24:34;9.48;;;4.78;;
72584;SDS011;60618;40.084;32.908;2023-08-24T04:27:01;9.77;;;4.55;;
72584;SDS011;60618;40.084;32.908;2023-08-24T04:29:28;8.32;;;4.68;;
72584;SDS011;60618;40.084;32.908;2023-08-24T04:31:55;9.25;;;4.80;;
72584;SDS011;60618;40.084;32.908;2023-08-24T04:34:22;9.07;;;5.10;;
72584;SDS011;60618;40.084;32.908;2023-08-24T04:36:49;10.27;;;5.05;;
72584;SDS011;60618;40.084;32.908;2023-08-24T04:39:15;9.45;;;4.85;;
72584;SDS011;60618;40.084;32.908;2023-08-24T04:41:42;8.32;;;5.07;;
72584;SDS011;60618;40.084;32.908;2023-08-24T04:44:12;10.52;;;5.00;;
72584;SDS011;60618;40.084;32.908;2023-08-24T04:46:40;10.03;;;5.00;;
72584;SDS011;60618;40.084;32.908;2023-08-24T04:49:07;9.70;;;4.97;;
72584;SDS011;60618;40.084;32.908;2023-08-24T04:51:34;8.23;;;4.47;;
72584;SDS011;60618;40.084;32.908;2023-08-24T04:54:01;8.48;;;4.80;;
72584;SDS011;60618;40.084;32.908;2023-08-24T04:56:28;7.38;;;4.80;;
72584;SDS011;60618;40.084;32.908;2023-08-24T04:58:55;10.83;;;4.80;;
72584;SDS011;60618;40.084;32.908;2023-08-24T05:01:23;9.32;;;4.65;;
72584;SDS011;60618;40.084;32.908;2023-08-24T05:03:51;10.02;;;4.85;;
72584;SDS011;60618;40.084;32.908;2023-08-24T05:06:18;10.10;;;4.70;;
72584;SDS011;60618;40.084;32.908;2023-08-24T05:08:46;7.97;;;4.70;;
72584;SDS011;60618;40.084;32.908;2023-08-24T05:11:13;8.67;;;4.63;;
72584;SDS011;60618;40.084;32.908;2023-08-24T05:13:43;7.68;;;4.93;;
72584;SDS011;60618;40.084;32.908;2023-08-24T05:16:10;8.73;;;4.57;;
72584;SDS011;60618;40.084;32.908;2023-08-24T05:18:38;9.20;;;4.65;;
72584;SDS011;60618;40.084;32.908;2023-08-24T05:21:06;7.97;;;5.00;;
72584;SDS011;60618;40.084;32.908;2023-08-24T05:23:33;9.77;;;4.80;;
72584;SDS011;60618;40.084;32.908;2023-08-24T05:26:01;8.35;;;4.70;;
72584;SDS011;60618;40.084;32.908;2023-08-24T05:28:30;11.30;;;4.95;;
72584;SDS011;60618;40.084;32.908;2023-08-24T05:30:57;7.18;;;5.00;;
72584;SDS011;60618;40.084;32.908;2023-08-24T05:33:28;7.93;;;4.60;;
72584;SDS011;60618;40.084;32.908;2023-08-24T05:35:55;9.90;;;5.03;;
72584;SDS011;60618;40.084;32.908;2023-08-24T05:38:22;10.85;;;5.07;;
72584;SDS011;60618;40.084;32.908;2023-08-24T05:40:49;8.40;;;4.68;;
72584;SDS011;60618;40.084;32.908;2023-08-24T05:43:16;9.07;;;4.80;;
72584;SDS011;60618;40.084;32.908;2023-08-24T05:45:43;6.97;;;4.50;;
72584;SDS011;60618;40.084;32.908;2023-08-24T05:48:11;9.03;;;4.80;;
72584;SDS011;60618;40.084;32.908;2023-08-24T05:50:47;9.77;;;4.72;;
72584;SDS011;60618;40.084;32.908;2023-08-24T05:53:14;11.70;;;4.55;;
72584;SDS011;60618;40.084;32.908;2023-08-24T05:55:41;7.35;;;4.63;;
72584;SDS011;60618;40.084;32.908;2023-08-24T05:58:08;8.77;;;4.70;;
72584;SDS011;60618;40.084;32.908;2023-08-24T06:00:35;7.77;;;4.67;;
72584;SDS011;60618;40.084;32.908;2023-08-24T06:03:03;9.85;;;4.95;;
72584;SDS011;60618;40.084;32.908;2023-08-24T06:05:30;8.15;;;4.68;;
72584;SDS011;60618;40.084;32.908;2023-08-24T06:07:57;9.80;;;4.95;;
72584;SDS011;60618;40.084;32.908;2023-08-24T06:10:24;12.15;;;4.70;;
72584;SDS011;60618;40.084;32.908;2023-08-24T06:12:51;8.80;;;4.77;;
72584;SDS011;60618;40.084;32.908;2023-08-24T06:15:18;9.32;;;5.18;;
72584;SDS011;60618;40.084;32.908;2023-08-24T06:17:45;10.57;;;4.82;;
72584;SDS011;60618;40.084;32.908;2023-08-24T06:20:12;8.98;;;5.60;;
72584;SDS011;60618;40.084;32.908;2023-08-24T06:22:39;8.43;;;4.70;;
72584;SDS011;60618;40.084;32.908;2023-08-24T06:25:07;10.27;;;5.27;;
72584;SDS011;60618;40.084;32.908;2023-08-24T06:27:35;9.48;;;4.63;;
72584;SDS011;60618;40.084;32.908;2023-08-24T06:30:02;9.95;;;4.70;;
72584;SDS011;60618;40.084;32.908;2023-08-24T06:32:30;9.02;;;4.80;;
72584;SDS011;60618;40.084;32.908;2023-08-24T06:34:56;9.82;;;5.18;;
72584;SDS011;60618;40.084;32.908;2023-08-24T06:37:23;8.73;;;5.30;;
72584;SDS011;60618;40.084;32.908;2023-08-24T06:39:50;7.55;;;4.90;;
72584;SDS011;60618;40.084;32.908;2023-08-24T06:42:17;10.50;;;5.10;;
72584;SDS011;60618;40.084;32.908;2023-08-24T06:44:44;10.20;;;4.50;;
72584;SDS011;60618;40.084;32.908;2023-08-24T06:47:11;9.27;;;4.90;;
72584;SDS011;60618;40.084;32.908;2023-08-24T06:49:38;13.43;;;5.20;;
72584;SDS011;60618;40.084;32.908;2023-08-24T06:52:05;10.70;;;5.28;;
72584;SDS011;60618;40.084;32.908;2023-08-24T06:54:32;13.50;;;4.97;;
72584;SDS011;60618;40.084;32.908;2023-08-24T06:56:59;11.57;;;5.47;;
72584;SDS011;60618;40.084;32.908;2023-08-24T06:59:26;12.15;;;5.18;;
72584;SDS011;60618;40.084;32.908;2023-08-24T07:01:52;21.90;;;5.90;;
72584;SDS011;60618;40.084;32.908;2023-08-24T07:04:19;19.05;;;5.55;;
72584;SDS011;60618;40.084;32.908;2023-08-24T07:06:47;14.70;;;5.40;;
72584;SDS011;60618;40.084;32.908;2023-08-24T07:09:14;11.00;;;5.10;;
72584;SDS011;60618;40.084;32.908;2023-08-24T07:11:41;10.85;;;7.43;;
72584;SDS011;60618;40.084;32.908;2023-08-24T07:14:08;13.57;;;6.00;;
72584;SDS011;60618;40.084;32.908;2023-08-24T07:16:35;12.52;;;5.13;;
72584;SDS011;60618;40.084;32.908;2023-08-24T07:19:01;13.10;;;7.38;;
72584;SDS011;60618;40.084;32.908;2023-08-24T07:21:28;13.95;;;10.45;;
72584;SDS011;60618;40.084;32.908;2023-08-24T07:23:55;8.32;;;4.90;;
72584;SDS011;60618;40.084;32.908;2023-08-24T07:26:22;13.70;;;6.03;;
72584;SDS011;60618;40.084;32.908;2023-08-24T07:28:49;9.23;;;4.80;;
72584;SDS011;60618;40.084;32.908;2023-08-24T07:31:16;9.27;;;5.10;;
72584;SDS011;60618;40.084;32.908;2023-08-24T07:33:43;12.77;;;5.10;;
72584;SDS011;60618;40.084;32.908;2023-08-24T07:36:10;9.38;;;5.20;;
72584;SDS011;60618;40.084;32.908;2023-08-24T07:38:37;13.00;;;5.40;;
72584;SDS011;60618;40.084;32.908;2023-08-24T07:41:04;11.38;;;5.20;;
72584;SDS011;60618;40.084;32.908;2023-08-24T07:43:31;10.98;;;5.28;;
72584;SDS011;60618;40.084;32.908;2023-08-24T07:45:58;10.63;;;5.13;;
72584;SDS011;60618;40.084;32.908;2023-08-24T07:48:25;9.60;;;5.20;;
72584;SDS011;60618;40.084;32.908;2023-08-24T07:50:53;10.07;;;5.20;;
72584;SDS011;60618;40.084;32.908;2023-08-24T07:53:20;10.68;;;5.00;;
72584;SDS011;60618;40.084;32.908;2023-08-24T07:55:47;10.80;;;6.70;;
72584;SDS011;60618;40.084;32.908;2023-08-24T07:58:14;10.82;;;5.00;;
72584;SDS011;60618;40.084;32.908;2023-08-24T08:00:41;10.13;;;5.50;;
72584;SDS011;60618;40.084;32.908;2023-08-24T08:03:08;12.43;;;5.77;;
72584;SDS011;60618;40.084;32.908;2023-08-24T08:05:35;10.35;;;5.10;;
72584;SDS011;60618;40.084;32.908;2023-08-24T08:08:02;8.50;;;4.75;;
72584;SDS011;60618;40.084;32.908;2023-08-24T08:10:29;11.27;;;4.95;;
72584;SDS011;60618;40.084;32.908;2023-08-24T08:12:56;10.15;;;6.68;;
72584;SDS011;60618;40.084;32.908;2023-08-24T08:15:22;8.93;;;5.27;;
72584;SDS011;60618;40.084;32.908;2023-08-24T08:17:50;9.93;;;4.97;;
72584;SDS011;60618;40.084;32.908;2023-08-24T08:20:18;11.90;;;5.20;;
72584;SDS011;60618;40.084;32.908;2023-08-24T08:22:45;8.52;;;5.80;;
72584;SDS011;60618;40.084;32.908;2023-08-24T08:25:12;9.77;;;4.70;;
72584;SDS011;60618;40.084;32.908;2023-08-24T08:27:39;10.60;;;5.30;;
72584;SDS011;60618;40.084;32.908;2023-08-24T08:30:06;9.27;;;4.88;;
72584;SDS011;60618;40.084;32.908;2023-08-24T08:32:33;10.70;;;5.25;;
72584;SDS011;60618;40.084;32.908;2023-08-24T08:35:00;8.23;;;4.80;;
72584;SDS011;60618;40.084;32.908;2023-08-24T08:37:27;9.05;;;5.45;;
72584;SDS011;60618;40.084;32.908;2023-08-24T08:39:54;10.73;;;5.10;;
72584;SDS011;60618;40.084;32.908;2023-08-24T08:42:21;12.55;;;5.28;;
72584;SDS011;60618;40.084;32.908;2023-08-24T08:44:48;7.78;;;4.93;;
72584;SDS011;60618;40.084;32.908;2023-08-24T08:47:18;9.90;;;4.93;;
72584;SDS011;60618;40.084;32.908;2023-08-24T08:49:47;9.13;;;5.35;;
72584;SDS011;60618;40.084;32.908;2023-08-24T08:52:14;8.47;;;5.60;;
72584;SDS011;60618;40.084;32.908;2023-08-24T08:54:42;12.25;;;5.35;;
72584;SDS011;60618;40.084;32.908;2023-08-24T08:57:09;8.18;;;5.88;;
72584;SDS011;60618;40.084;32.908;2023-08-24T08:59:36;13.40;;;7.63;;
72584;SDS011;60618;40.084;32.908;2023-08-24T09:02:04;7.15;;;5.70;;
72584;SDS011;60618;40.084;32.908;2023-08-24T09:04:32;11.27;;;5.50;;
72584;SDS011;60618;40.084;32.908;2023-08-24T09:07:00;9.80;;;6.70;;
72584;SDS011;60618;40.084;32.908;2023-08-24T09:09:27;11.38;;;5.05;;
72584;SDS011;60618;40.084;32.908;2023-08-24T09:11:58;8.88;;;5.40;;
72584;SDS011;60618;40.084;32.908;2023-08-24T09:14:25;9.60;;;5.55;;
72584;SDS011;60618;40.084;32.908;2023-08-24T09:16:52;10.23;;;4.90;;
72584;SDS011;60618;40.084;32.908;2023-08-24T09:19:20;8.90;;;4.97;;
72584;SDS011;60618;40.084;32.908;2023-08-24T09:21:58;11.32;;;4.97;;
72584;SDS011;60618;40.084;32.908;2023-08-24T09:24:34;9.77;;;4.85;;
72584;SDS011;60618;40.084;32.908;2023-08-24T09:27:14;8.77;;;5.40;;
72584;SDS011;60618;40.084;32.908;2023-08-24T09:29:42;13.30;;;5.03;;
72584;SDS011;60618;40.084;32.908;2023-08-24T09:32:09;8.82;;;5.05;;
72584;SDS011;60618;40.084;32.908;2023-08-24T09:34:36;8.27;;;5.00;;
72584;SDS011;60618;40.084;32.908;2023-08-24T09:37:03;11.20;;;4.95;;
72584;SDS011;60618;40.084;32.908;2023-08-24T09:39:31;9.38;;;5.13;;
72584;SDS011;60618;40.084;32.908;2023-08-24T09:42:00;8.80;;;4.90;;
72584;SDS011;60618;40.084;32.908;2023-08-24T09:44:28;8.32;;;5.13;;
72584;SDS011;60618;40.084;32.908;2023-08-24T09:46:54;7.70;;;4.75;;
72584;SDS011;60618;40.084;32.908;2023-08-24T09:49:21;11.02;;;5.25;;
72584;SDS011;60618;40.084;32.908;2023-08-24T09:51:48;9.52;;;5.40;;
72584;SDS011;60618;40.084;32.908;2023-08-24T09:54:16;9.30;;;5.30;;
72584;SDS011;60618;40.084;32.908;2023-08-24T09:56:49;12.43;;;5.00;;
72584;SDS011;60618;40.084;32.908;2023-08-24T09:59:17;11.63;;;6.43;;
72584;SDS011;60618;40.084;32.908;2023-08-24T10:01:45;10.98;;;6.15;;
72584;SDS011;60618;40.084;32.908;2023-08-24T10:04:28;10.07;;;5.45;;
72584;SDS011;60618;40.084;32.908;2023-08-24T10:06:59;14.13;;;6.23;;
72584;SDS011;60618;40.084;32.908;2023-08-24T10:09:35;11.55;;;6.03;;
72584;SDS011;60618;40.084;32.908;2023-08-24T10:12:08;9.73;;;5.93;;
72584;SDS011;60618;40.084;32.908;2023-08-24T10:14:39;10.00;;;5.78;;
72584;SDS011;60618;40.084;32.908;2023-08-24T10:17:13;8.43;;;6.00;;
72584;SDS011;60618;40.084;32.908;2023-08-24T10:19:41;11.37;;;5.90;;
72584;SDS011;60618;40.084;32.908;2023-08-24T10:22:10;12.00;;;5.97;;
72584;SDS011;60618;40.084;32.908;2023-08-24T10:24:38;17.90;;;6.20;;
72584;SDS011;60618;40.084;32.908;2023-08-24T10:27:05;12.55;;;6.32;;
72584;SDS011;60618;40.084;32.908;2023-08-24T10:29:36;16.35;;;8.88;;
72584;SDS011;60618;40.084;32.908;2023-08-24T10:32:03;12.97;;;5.97;;
72584;SDS011;60618;40.084;32.908;2023-08-24T10:34:30;13.32;;;6.07;;
72584;SDS011;60618;40.084;32.908;2023-08-24T10:36:57;12.90;;;6.00;;
72584;SDS011;60618;40.084;32.908;2023-08-24T10:39:34;9.43;;;5.70;;
72584;SDS011;60618;40.084;32.908;2023-08-24T10:42:01;10.25;;;5.30;;
72584;SDS011;60618;40.084;32.908;2023-08-24T10:44:34;15.73;;;5.67;;
72584;SDS011;60618;40.084;32.908;2023-08-24T10:47:13;10.40;;;5.43;;
72584;SDS011;60618;40.084;32.908;2023-08-24T10:49:41;11.40;;;5.07;;
72584;SDS011;60618;40.084;32.908;2023-08-24T10:52:19;9.45;;;5.57;;
72584;SDS011;60618;40.084;32.908;2023-08-24T10:54:53;8.55;;;5.30;;
72584;SDS011;60618;40.084;32.908;2023-08-24T10:57:22;12.50;;;6.53;;
72584;SDS011;60618;40.084;32.908;2023-08-24T11:02:40;8.52;;;5.82;;
72584;SDS011;60618;40.084;32.908;2023-08-24T11:05:15;10.68;;;5.78;;
72584;SDS011;60618;40.084;32.908;2023-08-24T11:07:49;12.40;;;6.50;;
72584;SDS011;60618;40.084;32.908;2023-08-24T11:10:20;13.60;;;6.30;;
72584;SDS011;60618;40.084;32.908;2023-08-24T11:13:04;13.60;;;6.30;;
72584;SDS011;60618;40.084;32.908;2023-08-24T11:15:38;10.68;;;6.50;;
72584;SDS011;60618;40.084;32.908;2023-08-24T11:20:47;8.35;;;5.63;;
72584;SDS011;60618;40.084;32.908;2023-08-24T11:23:15;9.23;;;7.07;;
72584;SDS011;60618;40.084;32.908;2023-08-24T11:25:42;10.95;;;7.13;;
72584;SDS011;60618;40.084;32.908;2023-08-24T11:28:11;8.65;;;6.95;;
72584;SDS011;60618;40.084;32.908;2023-08-24T11:30:43;9.85;;;6.38;;
72584;SDS011;60618;40.084;32.908;2023-08-24T11:33:11;8.18;;;6.50;;
72584;SDS011;60618;40.084;32.908;2023-08-24T11:35:39;10.97;;;7.43;;
72584;SDS011;60618;40.084;32.908;2023-08-24T11:38:10;10.25;;;6.53;;
72584;SDS011;60618;40.084;32.908;2023-08-24T11:40:37;9.65;;;6.72;;
72584;SDS011;60618;40.084;32.908;2023-08-24T11:43:05;10.27;;;6.63;;
72584;SDS011;60618;40.084;32.908;2023-08-24T11:45:33;8.77;;;6.20;;
72584;SDS011;60618;40.084;32.908;2023-08-24T11:48:02;10.10;;;6.60;;
72584;SDS011;60618;40.084;32.908;2023-08-24T11:50:30;9.50;;;6.35;;
72584;SDS011;60618;40.084;32.908;2023-08-24T11:52:58;10.70;;;6.47;;
72584;SDS011;60618;40.084;32.908;2023-08-24T11:55:25;8.43;;;6.32;;
72584;SDS011;60618;40.084;32.908;2023-08-24T11:57:52;13.13;;;6.13;;
72584;SDS011;60618;40.084;32.908;2023-08-24T12:00:20;7.33;;;5.90;;
72584;SDS011;60618;40.084;32.908;2023-08-24T12:02:48;8.80;;;5.82;;
72584;SDS011;60618;40.084;32.908;2023-08-24T12:05:22;8.70;;;6.47;;
72584;SDS011;60618;40.084;32.908;2023-08-24T12:07:53;9.93;;;6.90;;
72584;SDS011;60618;40.084;32.908;2023-08-24T12:10:21;11.30;;;6.85;;
72584;SDS011;60618;40.084;32.908;2023-08-24T12:12:48;11.47;;;7.83;;
72584;SDS011;60618;40.084;32.908;2023-08-24T12:15:16;7.70;;;6.30;;
72584;SDS011;60618;40.084;32.908;2023-08-24T12:17:46;7.65;;;5.40;;
72584;SDS011;60618;40.084;32.908;2023-08-24T12:20:18;8.52;;;6.00;;
72584;SDS011;60618;40.084;32.908;2023-08-24T12:22:50;9.43;;;6.03;;
72584;SDS011;60618;40.084;32.908;2023-08-24T12:25:18;9.77;;;6.37;;
72584;SDS011;60618;40.084;32.908;2023-08-24T12:27:49;9.68;;;6.00;;
72584;SDS011;60618;40.084;32.908;2023-08-24T12:30:18;8.73;;;6.25;;
72584;SDS011;60618;40.084;32.908;2023-08-24T12:32:46;8.52;;;5.80;;
72584;SDS011;60618;40.084;32.908;2023-08-24T12:35:14;7.45;;;5.80;;
72584;SDS011;60618;40.084;32.908;2023-08-24T12:37:41;9.50;;;6.40;;
72584;SDS011;60618;40.084;32.908;2023-08-24T12:40:08;11.63;;;6.40;;
72584;SDS011;60618;40.084;32.908;2023-08-24T12:42:35;8.50;;;6.50;;
72584;SDS011;60618;40.084;32.908;2023-08-24T12:45:04;9.82;;;6.68;;
72584;SDS011;60618;40.084;32.908;2023-08-24T12:47:31;10.18;;;6.57;;
72584;SDS011;60618;40.084;32.908;2023-08-24T12:49:58;9.97;;;6.10;;
72584;SDS011;60618;40.084;32.908;2023-08-24T12:52:25;10.63;;;6.57;;
72584;SDS011;60618;40.084;32.908;2023-08-24T12:54:52;9.32;;;6.93;;
72584;SDS011;60618;40.084;32.908;2023-08-24T12:57:19;9.85;;;6.78;;
72584;SDS011;60618;40.084;32.908;2023-08-24T12:59:46;12.30;;;7.50;;
72584;SDS011;60618;40.084;32.908;2023-08-24T13:02:13;8.83;;;6.80;;
72584;SDS011;60618;40.084;32.908;2023-08-24T13:04:54;9.50;;;7.20;;
72584;SDS011;60618;40.084;32.908;2023-08-24T13:07:21;9.40;;;7.40;;
72584;SDS011;60618;40.084;32.908;2023-08-24T13:09:48;10.70;;;7.10;;
72584;SDS011;60618;40.084;32.908;2023-08-24T13:12:18;9.63;;;6.88;;
72584;SDS011;60618;40.084;32.908;2023-08-24T13:14:45;8.70;;;6.60;;
72584;SDS011;60618;40.084;32.908;2023-08-24T13:17:12;10.48;;;6.68;;
72584;SDS011;60618;40.084;32.908;2023-08-24T13:19:39;9.02;;;7.20;;
72584;SDS011;60618;40.084;32.908;2023-08-24T13:22:06;11.73;;;8.10;;
72584;SDS011;60618;40.084;32.908;2023-08-24T13:24:32;11.45;;;7.85;;
72584;SDS011;60618;40.084;32.908;2023-08-24T13:27:03;11.10;;;7.77;;
72584;SDS011;60618;40.084;32.908;2023-08-24T13:29:31;12.85;;;7.88;;
72584;SDS011;60618;40.084;32.908;2023-08-24T13:31:58;12.50;;;8.40;;
72584;SDS011;60618;40.084;32.908;2023-08-24T13:34:25;13.95;;;7.40;;
72584;SDS011;60618;40.084;32.908;2023-08-24T13:36:52;9.80;;;7.57;;
72584;SDS011;60618;40.084;32.908;2023-08-24T13:39:19;10.70;;;7.23;;
72584;SDS011;60618;40.084;32.908;2023-08-24T13:41:46;10.27;;;7.00;;
72584;SDS011;60618;40.084;32.908;2023-08-24T13:44:13;11.27;;;7.50;;
72584;SDS011;60618;40.084;32.908;2023-08-24T13:46:43;10.48;;;7.47;;
72584;SDS011;60618;40.084;32.908;2023-08-24T13:49:10;13.80;;;8.35;;
72584;SDS011;60618;40.084;32.908;2023-08-24T13:51:39;10.07;;;7.80;;
72584;SDS011;60618;40.084;32.908;2023-08-24T13:54:18;10.77;;;7.60;;
72584;SDS011;60618;40.084;32.908;2023-08-24T13:56:46;12.38;;;7.80;;
72584;SDS011;60618;40.084;32.908;2023-08-24T13:59:14;10.40;;;7.20;;
72584;SDS011;60618;40.084;32.908;2023-08-24T14:01:41;10.88;;;7.60;;
72584;SDS011;60618;40.084;32.908;2023-08-24T14:04:08;11.47;;;7.47;;
72584;SDS011;60618;40.084;32.908;2023-08-24T14:06:35;10.98;;;7.45;;
72584;SDS011;60618;40.084;32.908;2023-08-24T14:09:05;12.65;;;7.30;;
72584;SDS011;60618;40.084;32.908;2023-08-24T14:11:35;9.35;;;7.20;;
72584;SDS011;60618;40.084;32.908;2023-08-24T14:14:02;10.82;;;7.30;;
72584;SDS011;60618;40.084;32.908;2023-08-24T14:16:29;13.73;;;8.17;;
72584;SDS011;60618;40.084;32.908;2023-08-24T14:18:56;10.77;;;7.68;;
72584;SDS011;60618;40.084;32.908;2023-08-24T14:21:23;13.75;;;8.55;;
72584;SDS011;60618;40.084;32.908;2023-08-24T14:24:09;11.80;;;8.23;;
72584;SDS011;60618;40.084;32.908;2023-08-24T14:26:36;9.95;;;7.60;;
72584;SDS011;60618;40.084;32.908;2023-08-24T14:29:03;10.30;;;8.23;;
72584;SDS011;60618;40.084;32.908;2023-08-24T14:31:30;10.63;;;7.97;;
72584;SDS011;60618;40.084;32.908;2023-08-24T14:33:57;9.40;;;7.65;;
72584;SDS011;60618;40.084;32.908;2023-08-24T14:36:24;13.55;;;7.93;;
72584;SDS011;60618;40.084;32.908;2023-08-24T14:38:51;10.10;;;7.97;;
72584;SDS011;60618;40.084;32.908;2023-08-24T14:41:18;8.87;;;7.03;;